Time;durP1;ratioP1;P1;durP2;ratioP2;P2;SDS_P1;SDS_P2;PMS_P1;PMS_P2;Temp;Humidity;BMP_temperature;BMP_pressure;BME280_temperature;BME280_humidity;BME280_pressure;Samples;Min_cycle;Max_cycle;Signal;HPM_P1;HPM_P2
2021/08/27 00:02:06;;;;;;;4.82;0.30;;;11.80;99.90;;;;;;4951305;28;20130;-82
2021/08/27 00:04:32;;;;;;;5.03;0.40;;;11.80;99.90;;;;;;4949990;28;20059;-82
2021/08/27 00:06:58;;;;;;;3.25;0.30;;;11.80;99.90;;;;;;4949966;29;20106;-82
2021/08/27 00:09:24;;;;;;;2.58;0.30;;;11.80;99.90;;;;;;4951174;28;20027;-82
2021/08/27 00:11:49;;;;;;;2.10;0.30;;;11.80;99.90;;;;;;4945941;28;20032;-83
2021/08/27 00:14:15;;;;;;;4.47;0.30;;;11.80;99.90;;;;;;4953051;28;20161;-83
2021/08/27 00:16:41;;;;;;;3.88;0.35;;;11.90;99.90;;;;;;4950542;28;20019;-82
2021/08/27 00:19:06;;;;;;;6.25;0.40;;;11.90;99.90;;;;;;4947285;29;20031;-83
2021/08/27 00:21:32;;;;;;;4.75;0.30;;;11.80;99.90;;;;;;4950261;28;20031;-82
2021/08/27 00:23:57;;;;;;;2.88;0.38;;;11.80;99.90;;;;;;4943387;28;20035;-82
2021/08/27 00:26:23;;;;;;;3.45;0.60;;;11.80;99.90;;;;;;4951214;28;20039;-82
2021/08/27 00:28:48;;;;;;;6.32;0.30;;;11.80;99.90;;;;;;4948996;28;20391;-82
2021/08/27 00:31:14;;;;;;;3.80;0.57;;;11.80;99.90;;;;;;4950924;28;20027;-83
2021/08/27 00:33:39;;;;;;;4.07;0.73;;;11.80;99.90;;;;;;4949689;28;20074;-82
2021/08/27 00:36:05;;;;;;;6.30;0.73;;;11.80;99.90;;;;;;4949820;28;20031;-83
2021/08/27 00:38:30;;;;;;;5.10;0.40;;;11.80;99.90;;;;;;4947157;28;20027;-82
2021/08/27 00:40:56;;;;;;;3.85;0.40;;;11.80;99.90;;;;;;4951132;28;20043;-83
2021/08/27 00:43:21;;;;;;;4.13;0.40;;;11.80;99.90;;;;;;4948687;28;20035;-83
2021/08/27 00:45:47;;;;;;;2.78;0.30;;;11.80;99.90;;;;;;4950648;28;20396;-82
2021/08/27 00:48:16;;;;;;;2.13;0.25;;;11.80;99.90;;;;;;4950932;28;20027;-83
2021/08/27 00:50:45;;;;;;;6.07;0.50;;;11.80;99.90;;;;;;4951402;28;20023;-82
2021/08/27 00:53:11;;;;;;;2.83;0.28;;;11.70;99.90;;;;;;4950104;28;20488;-82
2021/08/27 00:55:36;;;;;;;5.20;0.50;;;11.70;99.90;;;;;;4951193;28;20042;-82
2021/08/27 00:58:02;;;;;;;1.85;0.20;;;11.70;99.90;;;;;;4952109;28;20023;-82
2021/08/27 01:00:28;;;;;;;2.47;0.30;;;11.70;99.90;;;;;;4950673;28;20110;-82
2021/08/27 01:02:54;;;;;;;2.80;0.40;;;11.60;99.90;;;;;;4950389;28;20487;-82
2021/08/27 01:05:21;;;;;;;1.65;0.20;;;11.60;99.90;;;;;;4949718;29;20432;-82
2021/08/27 01:07:59;;;;;;;8.35;0.50;;;11.60;99.90;;;;;;4951089;28;20488;-82
2021/08/27 01:10:41;;;;;;;2.83;0.30;;;11.50;99.90;;;;;;4949749;28;20039;-83
2021/08/27 01:13:16;;;;;;;3.08;0.40;;;11.50;99.90;;;;;;4947187;28;20023;-82
2021/08/27 01:15:57;;;;;;;8.80;0.50;;;11.50;99.90;;;;;;4936141;29;20471;-82
2021/08/27 01:18:41;;;;;;;6.32;1.13;;;11.50;99.90;;;;;;4950028;28;20054;-83
2021/08/27 01:21:44;;;;;;;6.60;0.43;;;11.50;99.90;;;;;;4950132;28;20031;-83
2021/08/27 01:24:11;;;;;;;3.25;0.40;;;11.50;99.90;;;;;;4936398;28;20043;-83
2021/08/27 01:26:43;;;;;;;7.25;0.50;;;11.50;99.90;;;;;;4943763;28;20114;-83
2021/08/27 01:29:09;;;;;;;6.90;0.40;;;11.50;99.90;;;;;;4948038;29;20028;-82
2021/08/27 01:31:54;;;;;;;5.82;0.43;;;11.40;99.90;;;;;;4949524;28;20114;-82
2021/08/27 01:34:41;;;;;;;2.15;0.30;;;11.40;99.90;;;;;;4948587;29;20476;-83
2021/08/27 01:37:10;;;;;;;3.92;0.35;;;11.40;99.90;;;;;;4949699;28;20034;-82
2021/08/27 01:39:41;;;;;;;4.72;0.40;;;11.30;99.90;;;;;;4964528;28;20041;-82
2021/08/27 01:42:11;;;;;;;5.90;0.50;;;11.30;99.90;;;;;;4949177;28;20041;-82
2021/08/27 01:44:38;;;;;;;5.88;0.55;;;11.30;99.90;;;;;;4951608;29;20050;-83
2021/08/27 01:47:07;;;;;;;9.57;0.77;;;11.30;99.90;;;;;;4949475;28;20028;-83
2021/08/27 01:49:32;;;;;;;4.95;0.55;;;11.30;99.90;;;;;;4949742;28;20038;-83
2021/08/27 01:52:06;;;;;;;2.35;0.45;;;11.30;99.90;;;;;;4950204;28;20035;-83
2021/08/27 01:54:33;;;;;;;4.15;0.60;;;11.30;99.90;;;;;;4950783;28;20031;-83
2021/08/27 01:56:59;;;;;;;5.25;0.57;;;11.30;99.90;;;;;;4949853;29;20039;-82
2021/08/27 01:59:31;;;;;;;5.95;0.60;;;11.30;99.90;;;;;;4951598;28;20460;-82
2021/08/27 02:01:57;;;;;;;6.35;0.60;;;11.30;99.90;;;;;;4954332;29;20043;-82
2021/08/27 02:04:24;;;;;;;5.03;0.57;;;11.30;99.90;;;;;;4953372;28;20090;-83
2021/08/27 02:06:50;;;;;;;8.30;1.00;;;11.30;99.90;;;;;;4941954;28;20031;-82
2021/08/27 02:09:17;;;;;;;2.85;0.55;;;11.30;99.90;;;;;;4946178;29;20019;-82
2021/08/27 02:11:43;;;;;;;4.97;0.47;;;11.30;99.90;;;;;;4951197;28;20437;-82
2021/08/27 02:14:09;;;;;;;2.00;0.55;;;11.40;99.90;;;;;;4952205;28;20050;-82
2021/08/27 02:16:35;;;;;;;9.40;0.63;;;11.40;99.90;;;;;;4954400;28;20636;-82
2021/08/27 02:19:02;;;;;;;3.60;0.63;;;11.40;99.90;;;;;;4952373;28;20027;-83
2021/08/27 02:21:32;;;;;;;5.00;0.70;;;11.40;99.90;;;;;;4950568;28;20070;-82
2021/08/27 02:23:59;;;;;;;5.43;0.50;;;11.40;99.90;;;;;;4953701;29;20038;-82
2021/08/27 02:26:25;;;;;;;10.15;0.60;;;11.50;99.90;;;;;;4953219;28;20043;-82
2021/08/27 02:28:51;;;;;;;5.18;0.50;;;11.50;99.90;;;;;;4953440;28;20027;-82
2021/08/27 02:31:17;;;;;;;6.10;0.70;;;11.60;99.90;;;;;;4953312;28;20082;-83
2021/08/27 02:33:45;;;;;;;5.97;0.45;;;11.60;99.90;;;;;;4952256;28;20023;-82
2021/08/27 02:36:14;;;;;;;5.75;0.50;;;11.70;99.90;;;;;;4952797;29;20027;-82
2021/08/27 02:38:41;;;;;;;3.17;0.43;;;11.70;99.90;;;;;;4951260;28;20476;-83
2021/08/27 02:41:06;;;;;;;8.65;0.68;;;11.70;99.90;;;;;;4952813;28;20058;-83
2021/08/27 02:43:32;;;;;;;12.57;0.63;;;11.70;99.90;;;;;;4946382;28;20063;-83
2021/08/27 02:45:57;;;;;;;4.70;0.40;;;11.70;99.90;;;;;;4953336;29;20027;-83
2021/08/27 02:48:23;;;;;;;5.95;1.40;;;11.70;99.90;;;;;;4952122;28;20042;-83
2021/08/27 02:50:59;;;;;;;3.53;0.60;;;11.70;99.90;;;;;;4953416;28;20248;-82
2021/08/27 02:53:31;;;;;;;5.32;0.63;;;11.70;99.90;;;;;;4950912;28;20039;-82
2021/08/27 02:56:08;;;;;;;5.75;0.60;;;11.70;99.90;;;;;;4952503;29;20111;-82
2021/08/27 02:58:35;;;;;;;2.55;0.45;;;11.70;99.90;;;;;;4952842;28;20122;-82
2021/08/27 03:01:19;;;;;;;8.65;0.60;;;11.70;99.90;;;;;;4954001;28;20048;-83
2021/08/27 03:04:08;;;;;;;4.00;0.70;;;11.70;99.90;;;;;;4950499;28;20043;-82
2021/08/27 03:06:56;;;;;;;3.83;0.80;;;11.70;99.90;;;;;;4949642;29;20110;-83
2021/08/27 03:09:25;;;;;;;4.30;0.60;;;11.70;99.90;;;;;;4953285;28;20051;-82
2021/08/27 03:12:02;;;;;;;5.38;0.80;;;11.70;99.90;;;;;;4948912;28;20442;-83
2021/08/27 03:14:40;;;;;;;6.25;1.27;;;11.70;99.90;;;;;;4950458;28;20488;-82
2021/08/27 03:17:09;;;;;;;3.55;0.70;;;11.70;99.90;;;;;;4951793;28;20118;-83
2021/08/27 03:19:45;;;;;;;5.32;0.60;;;11.70;99.90;;;;;;4951377;29;20046;-83
2021/08/27 03:22:23;;;;;;;3.20;0.60;;;11.70;99.90;;;;;;4953541;28;20118;-82
2021/08/27 03:25:02;;;;;;;5.20;0.60;;;11.70;99.90;;;;;;4950987;28;20062;-82
2021/08/27 03:27:32;;;;;;;4.10;0.77;;;11.80;99.90;;;;;;4951663;28;20247;-83
2021/08/27 03:30:06;;;;;;;4.07;0.60;;;11.80;99.90;;;;;;4951983;29;20047;-83
2021/08/27 03:32:32;;;;;;;5.47;0.73;;;11.90;99.90;;;;;;4943041;28;20038;-83
2021/08/27 03:34:59;;;;;;;5.15;0.63;;;11.90;99.90;;;;;;4952316;28;20024;-83
2021/08/27 03:37:25;;;;;;;5.45;0.90;;;12.00;99.90;;;;;;4946045;28;20045;-83
2021/08/27 03:39:52;;;;;;;7.18;0.88;;;12.10;99.90;;;;;;4952791;28;20110;-83
2021/08/27 03:42:18;;;;;;;5.20;0.40;;;12.10;99.90;;;;;;4950400;28;20567;-83
2021/08/27 03:44:46;;;;;;;6.22;0.40;;;12.20;99.90;;;;;;4948200;28;20041;-82
2021/08/27 03:47:14;;;;;;;5.32;0.40;;;12.30;99.90;;;;;;4952266;28;20081;-83
2021/08/27 03:49:40;;;;;;;6.43;0.57;;;12.40;99.90;;;;;;4949618;28;20034;-83
2021/08/27 03:52:06;;;;;;;7.85;0.70;;;12.50;99.90;;;;;;4951814;28;20023;-83
2021/08/27 03:54:33;;;;;;;5.60;0.40;;;12.50;99.90;;;;;;4952041;28;20118;-83
2021/08/27 03:57:01;;;;;;;5.05;0.50;;;12.60;99.90;;;;;;4951051;28;20027;-82
2021/08/27 03:59:28;;;;;;;2.33;0.55;;;12.70;99.90;;;;;;4950160;28;20046;-83
2021/08/27 04:01:55;;;;;;;8.10;0.63;;;12.80;99.90;;;;;;4950995;28;20039;-82
2021/08/27 04:04:21;;;;;;;6.50;0.60;;;12.80;99.90;;;;;;4951443;28;20075;-83
2021/08/27 04:07:00;;;;;;;4.95;0.50;;;12.90;99.90;;;;;;4951521;28;20042;-83
2021/08/27 04:09:27;;;;;;;6.03;0.40;;;13.00;99.90;;;;;;4951046;28;20497;-82
2021/08/27 04:11:54;;;;;;;7.10;0.40;;;13.00;99.90;;;;;;4951697;28;20491;-83
2021/08/27 04:14:20;;;;;;;4.45;0.40;;;13.10;99.90;;;;;;4948141;28;20435;-83
2021/08/27 04:16:46;;;;;;;4.93;0.40;;;13.10;99.90;;;;;;4950902;28;20028;-83
2021/08/27 04:19:14;;;;;;;5.10;0.55;;;13.20;99.90;;;;;;4950289;28;20095;-83
2021/08/27 04:21:41;;;;;;;4.00;0.38;;;13.20;99.90;;;;;;4950934;28;20019;-82
2021/08/27 04:24:06;;;;;;;4.13;0.40;;;13.30;99.90;;;;;;4949280;28;20415;-82
2021/08/27 04:26:33;;;;;;;4.30;0.40;;;13.30;99.90;;;;;;4956945;29;20042;-82
2021/08/27 04:28:58;;;;;;;12.40;1.25;;;13.30;99.90;;;;;;4949685;28;20396;-83
2021/08/27 04:31:24;;;;;;;4.50;0.50;;;13.30;99.90;;;;;;4951264;28;20039;-83
2021/08/27 04:33:49;;;;;;;8.50;0.55;;;13.30;99.90;;;;;;4951346;28;20107;-83
2021/08/27 04:36:15;;;;;;;2.53;0.40;;;13.30;99.90;;;;;;4950154;28;20114;-82
2021/08/27 04:38:41;;;;;;;7.97;0.68;;;13.30;99.90;;;;;;4951147;28;20027;-83
2021/08/27 04:41:06;;;;;;;5.65;0.50;;;13.30;99.90;;;;;;4952074;28;20027;-83
2021/08/27 04:43:32;;;;;;;5.93;0.50;;;13.30;99.90;;;;;;4949292;28;20031;-83
2021/08/27 04:45:58;;;;;;;4.97;0.70;;;13.30;99.90;;;;;;4951048;28;20082;-83
2021/08/27 04:48:24;;;;;;;6.20;0.55;;;13.30;99.90;;;;;;4950497;28;20369;-83
2021/08/27 04:50:50;;;;;;;4.53;0.40;;;13.30;99.90;;;;;;4951405;28;20023;-82
2021/08/27 04:53:16;;;;;;;2.13;0.32;;;13.30;99.90;;;;;;4950219;28;20035;-82
2021/08/27 04:55:41;;;;;;;10.02;0.75;;;13.30;99.90;;;;;;4946681;28;20122;-83
2021/08/27 04:58:07;;;;;;;5.68;0.40;;;13.30;99.90;;;;;;4951037;28;20082;-83
2021/08/27 05:00:32;;;;;;;5.20;0.32;;;13.30;99.90;;;;;;4951232;28;20079;-83
2021/08/27 05:02:58;;;;;;;3.40;0.45;;;13.30;99.90;;;;;;4950640;28;20137;-83
2021/08/27 05:05:23;;;;;;;3.47;0.40;;;13.40;99.90;;;;;;4951424;28;20479;-83
2021/08/27 05:07:49;;;;;;;2.92;0.57;;;13.40;99.90;;;;;;4948134;28;20075;-83
2021/08/27 05:10:14;;;;;;;4.32;0.63;;;13.50;99.90;;;;;;4944809;28;20024;-83
2021/08/27 05:12:40;;;;;;;7.00;1.17;;;13.60;99.90;;;;;;4949865;28;20031;-83
2021/08/27 05:15:07;;;;;;;7.55;0.68;;;13.60;99.90;;;;;;4950289;28;20039;-82
2021/08/27 05:17:32;;;;;;;6.97;1.15;;;13.70;99.90;;;;;;4950624;28;20039;-83
2021/08/27 05:19:58;;;;;;;5.55;0.70;;;13.80;99.90;;;;;;4947383;29;20051;-83
2021/08/27 05:22:23;;;;;;;6.90;0.60;;;13.80;99.90;;;;;;4939633;28;20040;-83
2021/08/27 05:24:49;;;;;;;4.65;0.77;;;13.90;99.90;;;;;;4947416;28;20380;-83
2021/08/27 05:27:15;;;;;;;5.28;1.45;;;13.90;99.90;;;;;;4949875;28;20082;-84
2021/08/27 05:29:40;;;;;;;7.90;0.88;;;14.00;99.90;;;;;;4940654;28;20488;-84
2021/08/27 05:32:07;;;;;;;5.32;0.55;;;14.00;99.90;;;;;;4944945;28;20024;-84
2021/08/27 05:34:33;;;;;;;4.07;0.50;;;14.10;99.90;;;;;;4941916;29;20057;-84
2021/08/27 05:36:58;;;;;;;5.18;0.70;;;14.10;99.90;;;;;;4942942;29;20031;-84
2021/08/27 05:39:27;;;;;;;4.60;0.80;;;14.20;99.90;;;;;;4940430;28;20039;-84
2021/08/27 05:41:57;;;;;;;4.18;0.50;;;14.20;99.90;;;;;;4955796;28;20384;-83
2021/08/27 05:44:23;;;;;;;5.43;0.70;;;14.20;99.90;;;;;;4957874;28;20039;-83
2021/08/27 05:46:49;;;;;;;4.72;0.40;;;14.20;99.90;;;;;;4942243;29;20041;-83
2021/08/27 05:49:14;;;;;;;3.80;0.50;;;14.20;99.90;;;;;;4950238;29;20031;-83
2021/08/27 05:51:40;;;;;;;4.85;0.40;;;14.30;99.90;;;;;;4950113;29;20380;-82
2021/08/27 05:54:05;;;;;;;4.78;0.50;;;14.30;99.90;;;;;;4938505;29;20030;-84
2021/08/27 05:56:31;;;;;;;2.83;0.65;;;14.20;99.90;;;;;;4947664;28;20031;-83
2021/08/27 05:58:56;;;;;;;5.35;0.50;;;14.20;99.90;;;;;;4949180;28;20046;-83
2021/08/27 06:01:22;;;;;;;4.20;0.50;;;14.20;99.90;;;;;;4945687;28;20032;-84
2021/08/27 06:03:47;;;;;;;3.85;0.65;;;14.10;99.90;;;;;;4951355;28;20206;-83
2021/08/27 06:06:13;;;;;;;3.88;1.15;;;14.10;99.90;;;;;;4953255;28;20034;-82
2021/08/27 06:08:38;;;;;;;4.97;0.50;;;14.10;99.90;;;;;;4948985;28;20036;-82
2021/08/27 06:11:04;;;;;;;2.33;0.40;;;14.00;99.90;;;;;;4952827;28;20031;-82
2021/08/27 06:13:29;;;;;;;3.22;0.30;;;14.00;99.90;;;;;;4948590;28;20031;-83
2021/08/27 06:15:56;;;;;;;1.33;0.40;;;14.00;99.90;;;;;;4948197;29;20019;-82
2021/08/27 06:18:22;;;;;;;5.72;0.65;;;14.10;99.90;;;;;;4951639;28;20114;-82
2021/08/27 06:20:50;;;;;;;3.67;0.50;;;14.10;99.90;;;;;;4953121;28;20051;-82
2021/08/27 06:23:16;;;;;;;2.78;0.40;;;14.20;99.90;;;;;;4944390;28;20127;-82
2021/08/27 06:25:41;;;;;;;2.70;0.38;;;14.30;99.90;;;;;;4943404;28;20476;-83
2021/08/27 06:28:07;;;;;;;3.88;0.88;;;14.30;99.90;;;;;;4945041;28;21527;-83
2021/08/27 06:30:33;;;;;;;4.25;0.40;;;14.40;99.90;;;;;;4942472;28;20461;-82
2021/08/27 06:32:59;;;;;;;4.22;0.40;;;14.60;99.90;;;;;;4946549;28;20050;-82
2021/08/27 06:35:25;;;;;;;3.58;0.40;;;14.60;99.90;;;;;;4947046;28;20027;-82
2021/08/27 06:40:35;;;;;;;3.03;0.40;;;14.80;99.90;;;;;;4955223;29;20065;-82
2021/08/27 06:43:01;;;;;;;3.40;0.60;;;14.90;99.90;;;;;;4949227;28;20094;-82
2021/08/27 06:45:26;;;;;;;6.60;0.60;;;15.00;99.90;;;;;;4953621;28;20027;-81
2021/08/27 06:47:52;;;;;;;3.63;0.32;;;15.00;99.90;;;;;;4946564;28;20038;-82
2021/08/27 06:50:17;;;;;;;6.15;0.77;;;15.10;99.90;;;;;;4950787;28;20057;-81
2021/08/27 06:52:43;;;;;;;5.45;0.57;;;15.20;99.90;;;;;;4954540;28;20625;-82
2021/08/27 06:55:09;;;;;;;5.25;0.40;;;15.30;99.90;;;;;;4953386;28;20085;-83
2021/08/27 06:57:35;;;;;;;4.53;0.45;;;15.50;99.90;;;;;;4953985;28;20039;-82
2021/08/27 07:00:00;;;;;;;3.05;0.40;;;15.60;99.90;;;;;;4954241;28;20086;-82
2021/08/27 07:02:26;;;;;;;3.63;0.40;;;15.70;99.90;;;;;;4954258;28;20031;-83
2021/08/27 07:04:51;;;;;;;3.15;0.30;;;15.80;99.90;;;;;;4953919;28;20030;-82
2021/08/27 07:07:17;;;;;;;2.20;0.30;;;15.90;99.90;;;;;;4952954;28;20027;-82
2021/08/27 07:09:42;;;;;;;4.18;0.45;;;16.00;99.90;;;;;;4953868;28;20031;-82
2021/08/27 07:12:11;;;;;;;5.03;0.32;;;16.10;99.90;;;;;;4955901;28;20031;-83
2021/08/27 07:14:37;;;;;;;4.60;0.40;;;16.10;99.90;;;;;;4951870;29;20029;-83
2021/08/27 07:17:03;;;;;;;4.72;0.32;;;16.10;99.90;;;;;;4953613;28;20110;-82
2021/08/27 07:19:28;;;;;;;6.32;0.45;;;16.10;99.90;;;;;;4954996;28;20046;-82
2021/08/27 07:21:54;;;;;;;2.38;0.40;;;16.10;99.90;;;;;;4953652;28;20031;-83
2021/08/27 07:24:19;;;;;;;5.03;0.68;;;16.10;99.80;;;;;;4949822;28;20102;-83
2021/08/27 07:26:45;;;;;;;6.32;0.80;;;16.00;99.70;;;;;;4940742;29;20034;-82
2021/08/27 07:29:11;;;;;;;2.25;0.47;;;16.00;99.80;;;;;;4952072;28;20059;-82
2021/08/27 07:31:37;;;;;;;6.30;0.40;;;16.10;99.90;;;;;;4953787;28;20063;-82
2021/08/27 07:34:02;;;;;;;4.80;0.40;;;16.20;99.70;;;;;;4953977;28;20023;-82
2021/08/27 07:36:28;;;;;;;4.63;0.82;;;16.40;99.60;;;;;;4955285;28;20043;-82
2021/08/27 07:38:53;;;;;;;7.13;0.98;;;16.50;99.30;;;;;;4956369;28;20031;-82
2021/08/27 07:41:19;;;;;;;4.40;0.40;;;16.60;99.00;;;;;;4954979;29;20086;-82
2021/08/27 07:43:44;;;;;;;4.30;0.35;;;16.80;98.90;;;;;;4952676;28;20043;-82
2021/08/27 07:46:10;;;;;;;2.47;0.50;;;16.80;98.50;;;;;;4953915;28;20019;-82
2021/08/27 07:48:35;;;;;;;4.07;0.30;;;16.90;98.30;;;;;;4954289;28;20059;-82
2021/08/27 07:51:01;;;;;;;1.98;0.30;;;16.90;98.10;;;;;;4947986;28;20549;-83
2021/08/27 07:53:26;;;;;;;8.27;0.50;;;16.90;98.00;;;;;;4949070;28;20038;-82
2021/08/27 07:55:52;;;;;;;8.30;0.60;;;16.90;97.90;;;;;;4952628;28;20023;-82
2021/08/27 07:58:18;;;;;;;3.60;0.45;;;17.00;97.70;;;;;;4952047;29;20027;-82
2021/08/27 08:00:44;;;;;;;4.00;0.40;;;17.00;97.30;;;;;;4954458;28;20043;-83
2021/08/27 08:03:09;;;;;;;2.95;0.40;;;17.00;97.30;;;;;;4954374;28;20043;-82
2021/08/27 08:05:35;;;;;;;4.57;0.77;;;17.00;97.40;;;;;;4951656;28;20309;-83
2021/08/27 08:08:01;;;;;;;2.80;0.30;;;17.00;97.50;;;;;;4952587;28;20031;-83
2021/08/27 08:10:27;;;;;;;3.78;0.40;;;17.00;97.50;;;;;;4949943;28;20034;-82
2021/08/27 08:12:52;;;;;;;3.67;0.38;;;17.10;97.50;;;;;;4950339;29;20031;-82
2021/08/27 08:15:21;;;;;;;5.68;0.40;;;17.10;97.40;;;;;;4952875;28;20492;-81
2021/08/27 08:17:46;;;;;;;2.78;0.38;;;17.20;97.40;;;;;;4946554;29;20118;-82
2021/08/27 08:20:12;;;;;;;2.45;0.30;;;17.30;97.20;;;;;;4956251;28;20043;-82
2021/08/27 08:22:38;;;;;;;3.13;0.30;;;17.30;97.20;;;;;;4952870;28;20039;-83
2021/08/27 08:25:04;;;;;;;4.30;0.40;;;17.40;97.10;;;;;;4953152;28;20065;-83
2021/08/27 08:27:33;;;;;;;2.60;0.40;;;17.40;97.10;;;;;;4949445;28;20432;-82
2021/08/27 08:29:59;;;;;;;6.20;0.50;;;17.50;97.00;;;;;;4952442;29;20058;-83
2021/08/27 08:32:25;;;;;;;3.40;0.40;;;17.60;96.70;;;;;;4952611;28;20082;-83
2021/08/27 08:34:50;;;;;;;2.90;0.60;;;17.50;96.60;;;;;;4945124;29;20022;-84
2021/08/27 08:37:16;;;;;;;5.55;0.50;;;17.50;96.60;;;;;;4952208;29;20035;-84
2021/08/27 08:39:41;;;;;;;2.72;0.30;;;17.40;96.80;;;;;;4945653;29;20066;-84
2021/08/27 08:42:07;;;;;;;4.63;0.55;;;17.30;97.30;;;;;;4948898;28;20115;-85
2021/08/27 08:44:33;;;;;;;3.70;0.50;;;17.20;97.60;;;;;;4954717;28;20484;-84
2021/08/27 08:46:59;;;;;;;4.15;0.68;;;17.30;97.90;;;;;;4952789;28;20031;-84
2021/08/27 08:49:28;;;;;;;5.40;0.70;;;17.40;98.00;;;;;;4953301;28;20031;-85
2021/08/27 08:51:55;;;;;;;4.88;0.65;;;17.40;98.10;;;;;;4948829;28;20106;-83
2021/08/27 08:54:21;;;;;;;3.17;0.70;;;17.40;98.20;;;;;;4942978;29;20192;-84
2021/08/27 08:56:47;;;;;;;4.65;0.60;;;17.50;98.30;;;;;;4956155;28;20112;-84
2021/08/27 08:59:14;;;;;;;5.45;0.50;;;17.60;98.10;;;;;;4953029;29;20039;-84
2021/08/27 09:01:39;;;;;;;7.18;0.70;;;17.60;98.20;;;;;;4947414;28;20087;-84
2021/08/27 09:04:05;;;;;;;2.97;0.52;;;17.70;98.40;;;;;;4951469;29;20441;-84
2021/08/27 09:06:33;;;;;;;4.47;0.60;;;17.70;98.20;;;;;;4954915;28;20520;-84
2021/08/27 09:09:00;;;;;;;5.05;0.75;;;17.80;98.30;;;;;;4956521;28;20035;-84
2021/08/27 09:11:27;;;;;;;4.55;0.93;;;17.90;98.10;;;;;;4949368;29;20085;-84
2021/08/27 09:13:56;;;;;;;3.85;0.70;;;17.90;97.90;;;;;;4950336;29;20035;-84
2021/08/27 09:16:23;;;;;;;3.40;0.55;;;18.00;97.90;;;;;;4951949;28;20027;-84
2021/08/27 09:18:49;;;;;;;4.05;0.73;;;18.10;97.70;;;;;;4956792;28;20035;-84
2021/08/27 09:21:27;;;;;;;5.05;0.70;;;18.00;97.50;;;;;;4957889;28;20051;-84
2021/08/27 09:24:19;;;;;;;5.75;1.00;;;18.20;97.40;;;;;;4959778;28;20399;-84
2021/08/27 09:26:47;;;;;;;7.32;0.82;;;18.30;97.10;;;;;;4956241;28;20535;-84
2021/08/27 09:29:31;;;;;;;3.83;0.47;;;18.40;96.70;;;;;;4956150;29;20399;-84
2021/08/27 09:31:57;;;;;;;5.47;0.60;;;18.20;95.70;;;;;;4953982;28;20082;-84
2021/08/27 09:34:27;;;;;;;4.10;0.70;;;18.00;95.90;;;;;;4948466;29;20126;-85
2021/08/27 09:36:58;;;;;;;3.40;0.60;;;17.90;96.30;;;;;;4953464;28;20459;-85
2021/08/27 09:39:32;;;;;;;2.33;0.45;;;17.80;96.50;;;;;;4957406;28;20071;-84
2021/08/27 09:41:58;;;;;;;3.65;0.70;;;17.90;96.60;;;;;;4955215;29;20023;-85
2021/08/27 09:44:24;;;;;;;4.53;0.50;;;17.90;96.40;;;;;;4952427;28;20023;-85
2021/08/27 09:46:49;;;;;;;7.68;0.55;;;18.00;96.20;;;;;;4954601;28;20483;-85
2021/08/27 09:49:25;;;;;;;4.40;0.50;;;18.10;96.10;;;;;;4944863;29;20058;-84
2021/08/27 09:51:51;;;;;;;3.25;0.52;;;18.10;95.90;;;;;;4951463;29;20105;-84
2021/08/27 09:54:38;;;;;;;3.60;0.43;;;18.20;95.70;;;;;;4951833;28;20047;-83
2021/08/27 09:57:06;;;;;;;3.00;0.60;;;18.40;95.60;;;;;;4950242;28;20027;-84
2021/08/27 09:59:32;;;;;;;4.32;0.90;;;18.40;95.20;;;;;;4955780;28;20131;-85
2021/08/27 10:01:58;;;;;;;4.10;0.85;;;18.40;94.90;;;;;;4946900;28;20039;-84
2021/08/27 10:04:24;;;;;;;4.20;1.13;;;18.40;95.10;;;;;;4947249;28;20126;-83
2021/08/27 10:06:50;;;;;;;4.35;0.70;;;18.50;94.70;;;;;;4942593;29;20381;-84
2021/08/27 10:09:15;;;;;;;5.50;0.75;;;18.60;94.70;;;;;;4949598;29;20065;-84
2021/08/27 10:11:41;;;;;;;4.22;0.60;;;18.70;94.50;;;;;;4945194;28;20024;-84
2021/08/27 10:14:07;;;;;;;3.92;0.60;;;18.70;94.20;;;;;;4952308;28;20369;-85
2021/08/27 10:16:33;;;;;;;2.58;0.50;;;18.70;94.20;;;;;;4951755;28;20031;-86
2021/08/27 10:19:00;;;;;;;5.22;0.85;;;18.70;94.50;;;;;;4951115;28;20567;-84
2021/08/27 10:21:26;;;;;;;4.05;0.70;;;18.90;94.60;;;;;;4949948;28;20031;-84
2021/08/27 10:23:52;;;;;;;4.10;0.50;;;19.10;94.10;;;;;;4944783;28;20043;-84
2021/08/27 10:26:20;;;;;;;4.32;0.57;;;19.40;93.80;;;;;;4947144;28;20046;-85
2021/08/27 10:28:47;;;;;;;4.15;0.60;;;19.50;93.00;;;;;;4952622;28;20031;-85
2021/08/27 10:31:13;;;;;;;3.15;0.40;;;19.40;92.60;;;;;;4953822;28;20023;-85
2021/08/27 10:33:39;;;;;;;6.38;0.50;;;19.20;92.90;;;;;;4949690;29;20396;-85
2021/08/27 10:36:09;;;;;;;7.72;0.60;;;19.20;93.10;;;;;;4953936;28;20134;-84
2021/08/27 10:38:40;;;;;;;3.40;0.55;;;19.10;93.10;;;;;;4954160;28;20114;-85
2021/08/27 10:41:18;;;;;;;5.70;0.60;;;19.00;92.90;;;;;;4953243;28;20028;-84
2021/08/27 10:43:53;;;;;;;4.32;0.80;;;18.90;93.00;;;;;;4952899;28;20443;-86
2021/08/27 10:46:19;;;;;;;5.70;0.88;;;18.70;93.50;;;;;;4953055;28;20030;-86
2021/08/27 10:48:52;;;;;;;4.63;0.70;;;18.30;94.00;;;;;;4950784;28;20038;-86
2021/08/27 10:51:38;;;;;;;4.88;0.63;;;17.80;94.80;;;;;;4955254;29;20034;-86
2021/08/27 10:54:04;;;;;;;4.40;1.27;;;17.30;95.70;;;;;;4942615;29;20030;-87
2021/08/27 10:56:53;;;;;;;4.57;1.02;;;17.00;96.90;;;;;;4953318;28;20127;-86
2021/08/27 10:59:21;;;;;;;5.10;0.70;;;16.70;97.40;;;;;;4935426;29;20047;-87
2021/08/27 11:02:00;;;;;;;3.33;0.90;;;16.60;98.10;;;;;;4949135;28;20063;-87
2021/08/27 11:04:27;;;;;;;4.95;0.70;;;16.60;98.50;;;;;;4955174;28;20432;-87
2021/08/27 11:06:54;;;;;;;3.45;0.57;;;16.50;98.90;;;;;;4954100;28;20055;-87
2021/08/27 11:09:24;;;;;;;4.22;0.60;;;16.50;99.20;;;;;;4954238;29;20023;-86
2021/08/27 11:12:13;;;;;;;4.55;0.65;;;16.60;99.60;;;;;;4954332;28;20407;-87
2021/08/27 11:14:43;;;;;;;4.40;0.80;;;16.70;99.90;;;;;;4954373;28;20504;-86
2021/08/27 11:17:10;;;;;;;3.90;0.70;;;16.80;99.90;;;;;;4954445;28;20031;-86
2021/08/27 11:19:44;;;;;;;5.50;0.80;;;16.90;99.90;;;;;;4955082;28;20517;-86
2021/08/27 11:22:09;;;;;;;5.10;1.05;;;17.00;99.90;;;;;;4953968;28;20502;-86
2021/08/27 11:24:36;;;;;;;5.30;0.90;;;17.10;99.90;;;;;;4953679;28;20035;-86
2021/08/27 11:27:03;;;;;;;4.93;0.70;;;17.30;99.90;;;;;;4953484;28;20023;-86
2021/08/27 11:29:35;;;;;;;5.32;0.70;;;17.60;99.90;;;;;;4955304;28;20068;-86
2021/08/27 11:32:13;;;;;;;7.38;0.85;;;17.90;99.90;;;;;;4953541;28;20035;-87
2021/08/27 11:34:58;;;;;;;5.53;1.25;;;18.00;99.40;;;;;;4953774;28;20515;-86
2021/08/27 11:37:33;;;;;;;7.38;1.02;;;18.00;99.20;;;;;;4947092;28;20061;-86
2021/08/27 11:39:59;;;;;;;4.70;0.60;;;18.10;99.30;;;;;;4953390;28;20118;-86
2021/08/27 11:42:25;;;;;;;4.97;0.75;;;18.10;99.20;;;;;;4953140;28;20047;-86
2021/08/27 11:45:06;;;;;;;6.13;1.05;;;18.10;99.10;;;;;;4954956;28;20502;-86
2021/08/27 11:47:53;;;;;;;7.20;0.85;;;18.20;99.20;;;;;;4953718;28;20038;-86
2021/08/27 11:50:39;;;;;;;3.78;0.60;;;18.20;99.20;;;;;;4949440;28;20027;-85
2021/08/27 11:53:06;;;;;;;5.53;0.75;;;18.30;99.30;;;;;;4953587;28;20038;-85
2021/08/27 11:55:39;;;;;;;4.95;0.68;;;18.40;99.00;;;;;;4945673;29;20466;-85
2021/08/27 11:58:05;;;;;;;4.45;0.65;;;18.50;99.10;;;;;;4954201;28;20031;-84
2021/08/27 12:00:30;;;;;;;6.05;0.70;;;18.70;98.60;;;;;;4953233;28;20051;-84
2021/08/27 12:02:56;;;;;;;1.98;0.50;;;18.60;98.20;;;;;;4949640;28;20046;-84
2021/08/27 12:05:23;;;;;;;5.05;0.40;;;18.70;98.20;;;;;;4951644;28;20034;-84
2021/08/27 12:07:54;;;;;;;2.85;0.30;;;18.80;97.70;;;;;;4945600;28;20051;-84
2021/08/27 12:10:20;;;;;;;5.97;0.73;;;18.70;97.40;;;;;;4953616;28;20038;-84
2021/08/27 12:12:48;;;;;;;3.20;0.30;;;18.70;97.10;;;;;;4944275;28;20058;-84
2021/08/27 12:15:17;;;;;;;4.55;0.50;;;18.60;97.00;;;;;;4945673;29;20381;-84
2021/08/27 12:18:06;;;;;;;4.22;0.57;;;18.60;96.90;;;;;;4954903;28;20034;-84
2021/08/27 12:20:35;;;;;;;5.55;0.73;;;18.70;96.30;;;;;;4951198;28;20031;-84
2021/08/27 12:23:07;;;;;;;10.23;1.73;;;18.70;96.40;;;;;;4952942;28;20070;-83
2021/08/27 12:25:43;;;;;;;7.03;0.68;;;18.80;96.20;;;;;;4953031;28;20032;-84
2021/08/27 12:28:12;;;;;;;12.57;1.17;;;18.80;96.10;;;;;;4953128;28;20129;-84
2021/08/27 12:33:16;;;;;;;6.60;0.55;;;19.00;95.30;;;;;;4974604;23;20102;-67
2021/08/27 12:35:42;;;;;;;9.13;0.77;;;19.00;94.90;;;;;;4971880;28;20117;-67
2021/08/27 12:38:09;;;;;;;5.55;0.70;;;19.10;94.50;;;;;;4972691;28;20031;-67
2021/08/27 12:40:35;;;;;;;5.00;0.60;;;19.20;94.20;;;;;;4961768;28;20037;-67
2021/08/27 12:43:05;;;;;;;4.90;0.40;;;19.20;94.20;;;;;;4967211;28;20440;-66
2021/08/27 12:45:45;;;;;;;6.78;0.70;;;19.40;94.20;;;;;;4966775;28;20757;-66
2021/08/27 12:48:14;;;;;;;5.50;0.50;;;19.70;94.10;;;;;;4969337;28;20109;-67
2021/08/27 12:51:05;;;;;;;7.50;0.80;;;19.70;93.50;;;;;;4968239;28;20077;-68
2021/08/27 12:53:34;;;;;;;4.13;0.73;;;19.60;93.30;;;;;;4976580;28;20118;-67
2021/08/27 12:56:10;;;;;;;6.00;0.80;;;19.60;93.40;;;;;;4978403;28;20019;-68
2021/08/27 12:58:37;;;;;;;4.43;0.50;;;19.60;93.00;;;;;;4968504;28;20568;-66